createdAt,value
2023-06-28T00:01:03.686Z,16.66
2023-06-28T00:06:05.484Z,16.64
2023-06-28T00:11:07.729Z,16.61
2023-06-28T00:16:09.455Z,16.60
2023-06-28T00:21:14.818Z,16.60
2023-06-28T00:26:16.749Z,16.62
2023-06-28T00:31:18.855Z,16.65
2023-06-28T00:36:21.541Z,16.65
2023-06-28T00:41:23.420Z,16.64
2023-06-28T00:46:25.257Z,16.64
2023-06-28T00:51:28.443Z,16.62
2023-06-28T00:56:30.799Z,16.59
2023-06-28T01:01:33.249Z,16.56
2023-06-28T01:06:36.816Z,16.54
2023-06-28T01:11:39.840Z,16.50
2023-06-28T01:16:41.720Z,16.47
2023-06-28T01:21:46.303Z,16.44
2023-06-28T01:26:53.398Z,16.41
2023-06-28T01:31:56.143Z,16.37
2023-06-28T01:37:01.022Z,16.35
2023-06-28T01:42:04.158Z,16.33
2023-06-28T01:47:07.110Z,16.31
2023-06-28T01:52:09.267Z,16.32
2023-06-28T01:57:12.565Z,16.33
2023-06-28T02:02:14.734Z,16.30
2023-06-28T02:07:16.544Z,16.27
2023-06-28T02:12:20.553Z,16.25
2023-06-28T02:17:23.309Z,16.26
2023-06-28T02:22:26.918Z,16.25
2023-06-28T02:27:29.012Z,16.26
2023-06-28T02:32:32.119Z,16.26
2023-06-28T02:37:34.127Z,16.25
2023-06-28T02:42:36.613Z,16.23
2023-06-28T02:47:39.471Z,16.20
2023-06-28T02:52:42.770Z,16.16
2023-06-28T02:57:46.568Z,16.13
2023-06-28T03:02:50.509Z,16.11
2023-06-28T03:07:53.827Z,16.11
2023-06-28T03:12:57.722Z,16.07
2023-06-28T03:17:59.589Z,16.07
2023-06-28T03:23:03.436Z,16.07
2023-06-28T03:28:05.324Z,16.07
2023-06-28T03:33:08.123Z,16.08
2023-06-28T03:38:09.949Z,16.08
2023-06-28T03:43:11.851Z,16.08
2023-06-28T03:48:13.888Z,16.09
2023-06-28T03:53:15.634Z,16.09
2023-06-28T03:58:17.337Z,16.12
2023-06-28T04:03:20.335Z,16.12
2023-06-28T04:08:25.545Z,16.12
2023-06-28T04:13:30.349Z,16.15
2023-06-28T04:18:32.128Z,16.12
2023-06-28T04:23:33.944Z,16.15
2023-06-28T04:28:35.675Z,16.16
2023-06-28T04:33:37.746Z,16.19
2023-06-28T04:38:40.480Z,16.19
2023-06-28T04:43:42.715Z,16.19
2023-06-28T04:48:45.809Z,16.16
2023-06-28T04:53:48.290Z,16.16
2023-06-28T04:58:50.151Z,16.10
2023-06-28T05:03:51.972Z,16.13
2023-06-28T05:08:53.826Z,16.15
2023-06-28T05:13:55.575Z,16.13
2023-06-28T05:18:57.315Z,16.12
2023-06-28T05:24:00.187Z,16.10
2023-06-28T05:29:01.972Z,16.12
2023-06-28T05:34:04.490Z,16.14
2023-06-28T05:39:06.592Z,16.22
2023-06-28T05:44:08.788Z,16.36
2023-06-28T05:49:10.826Z,16.51
2023-06-28T05:54:12.756Z,16.62
2023-06-28T05:59:15.026Z,16.64
2023-06-28T06:15:17.979Z,16.75
2023-06-28T06:20:19.692Z,16.90
2023-06-28T06:25:24.377Z,17.08
2023-06-28T06:30:26.388Z,17.17
2023-06-28T06:35:29.159Z,17.26
2023-06-28T06:40:31.105Z,17.30
2023-06-28T06:45:33.092Z,17.30
2023-06-28T06:50:35.970Z,17.32
2023-06-28T06:55:39.160Z,17.42
2023-06-28T07:00:41.663Z,17.57
2023-06-28T07:05:44.792Z,17.60
2023-06-28T07:10:47.125Z,17.65
2023-06-28T07:15:49.052Z,17.69
2023-06-28T07:20:50.987Z,17.70
2023-06-28T07:25:53.145Z,17.84
2023-06-28T07:30:56.206Z,17.88
2023-06-28T07:35:58.307Z,17.92
2023-06-28T07:41:00.374Z,17.90
2023-06-28T07:46:04.945Z,17.83
2023-06-28T07:51:07.146Z,17.89
2023-06-28T07:56:09.203Z,17.93
2023-06-28T08:01:11.349Z,17.98
2023-06-28T08:06:13.401Z,18.27
2023-06-28T08:11:15.259Z,18.41
2023-06-28T08:16:17.788Z,18.65
2023-06-28T08:21:19.852Z,18.75
2023-06-28T08:26:22.040Z,18.85
2023-06-28T08:31:24.126Z,18.97
2023-06-28T08:36:26.355Z,18.99
2023-06-28T08:41:28.898Z,19.15
2023-06-28T08:46:32.257Z,19.20
2023-06-28T08:51:36.154Z,19.24
2023-06-28T08:56:48.236Z,19.33
2023-06-28T09:01:57.115Z,19.62
2023-06-28T09:06:59.558Z,19.48
2023-06-28T09:12:01.968Z,19.36
2023-06-28T09:17:04.061Z,19.28
2023-06-28T09:22:06.608Z,19.25
2023-06-28T09:27:13.616Z,19.43
2023-06-28T09:32:15.519Z,19.70
2023-06-28T09:37:17.466Z,19.65
2023-06-28T09:42:23.237Z,19.62
2023-06-28T09:47:33.400Z,19.65
2023-06-28T09:52:38.444Z,19.64
2023-06-28T09:57:42.250Z,19.91
2023-06-28T10:02:45.079Z,19.85
2023-06-28T10:07:50.355Z,19.79
2023-06-28T10:12:53.897Z,20.07
2023-06-28T10:17:56.294Z,20.25
2023-06-28T10:22:59.003Z,20.31
2023-06-28T10:28:02.056Z,20.51
2023-06-28T10:33:04.469Z,20.71
2023-06-28T10:38:12.572Z,20.85
2023-06-28T10:43:26.876Z,20.56
2023-06-28T10:48:29.218Z,20.42
2023-06-28T10:53:31.122Z,20.51
2023-06-28T10:58:43.860Z,20.61
2023-06-28T11:03:46.777Z,20.82
2023-06-28T11:08:49.533Z,20.69
2023-06-28T11:13:51.435Z,20.74
2023-06-28T11:18:54.467Z,20.84
2023-06-28T11:23:57.452Z,20.93
2023-06-28T11:29:02.295Z,20.66
2023-06-28T11:34:04.533Z,20.71
2023-06-28T11:39:08.466Z,20.89
2023-06-28T11:44:10.815Z,20.91
2023-06-28T11:49:12.857Z,21.01
2023-06-28T11:54:14.678Z,21.14
2023-06-28T11:59:20.786Z,21.27
2023-06-28T12:04:24.099Z,21.28
2023-06-28T12:09:32.046Z,21.28
2023-06-28T12:14:41.429Z,21.32
2023-06-28T12:19:43.333Z,21.28
2023-06-28T12:24:45.379Z,21.44
2023-06-28T12:29:47.314Z,21.52
2023-06-28T12:34:51.022Z,21.54
2023-06-28T12:39:52.781Z,21.53
2023-06-28T12:44:56.712Z,21.50
2023-06-28T12:49:59.270Z,21.59
2023-06-28T12:55:01.347Z,21.55
2023-06-28T13:00:03.602Z,21.40
2023-06-28T13:05:05.830Z,21.55
2023-06-28T13:10:10.701Z,21.59
2023-06-28T13:15:13.405Z,21.76
2023-06-28T13:20:15.275Z,21.90
2023-06-28T13:25:18.042Z,21.85
2023-06-28T13:30:21.684Z,21.80
2023-06-28T13:35:23.559Z,21.88
2023-06-28T13:40:26.602Z,22.03
2023-06-28T13:45:28.510Z,22.16
2023-06-28T13:50:30.630Z,22.17
2023-06-28T13:55:32.506Z,22.06
2023-06-28T14:00:35.878Z,21.98
2023-06-28T14:05:37.832Z,22.05
2023-06-28T14:10:39.974Z,22.16
2023-06-28T14:15:45.330Z,22.24
2023-06-28T14:20:47.751Z,22.36
2023-06-28T14:25:49.829Z,22.49
2023-06-28T14:30:52.083Z,22.52
2023-06-28T14:35:56.006Z,22.45
2023-06-28T14:40:58.309Z,22.55
2023-06-28T14:46:00.226Z,22.76
2023-06-28T14:51:04.432Z,22.87
2023-06-28T14:56:06.634Z,22.82
2023-06-28T15:01:08.456Z,22.78
2023-06-28T15:06:12.390Z,22.72
2023-06-28T15:11:15.172Z,22.72
2023-06-28T15:21:22.387Z,22.43
2023-06-28T15:26:24.937Z,22.35
2023-06-28T15:31:27.974Z,22.36
2023-06-28T15:36:29.707Z,22.41
2023-06-28T15:41:31.747Z,22.40
2023-06-28T15:46:34.582Z,22.43
2023-06-28T15:51:36.687Z,22.35
2023-06-28T15:56:39.964Z,22.31
2023-06-28T16:01:41.703Z,22.34
2023-06-28T16:06:43.534Z,22.36
2023-06-28T16:11:45.308Z,22.41
2023-06-28T16:16:48.528Z,22.42
2023-06-28T16:21:50.713Z,22.42
2023-06-28T16:26:52.516Z,22.45
2023-06-28T16:31:54.369Z,22.42
2023-06-28T16:36:56.386Z,22.41
2023-06-28T16:41:58.218Z,22.41
2023-06-28T16:47:01.982Z,22.37
2023-06-28T16:52:04.158Z,22.28
2023-06-28T16:57:06.118Z,22.24
2023-06-28T17:02:08.090Z,22.20
2023-06-28T17:07:10.129Z,22.16
2023-06-28T17:12:12.074Z,22.13
2023-06-28T17:17:14.277Z,22.10
2023-06-28T17:22:15.978Z,22.05
2023-06-28T17:27:19.303Z,22.01
2023-06-28T17:32:21.070Z,21.94
2023-06-28T17:37:22.885Z,21.89
2023-06-28T17:42:24.913Z,21.86
2023-06-28T17:47:26.869Z,21.83
2023-06-28T17:52:28.690Z,21.79
2023-06-28T17:57:30.834Z,21.75
2023-06-28T18:02:33.259Z,21.68
2023-06-28T18:07:35.466Z,21.63
2023-06-28T18:12:38.181Z,21.60
2023-06-28T18:17:40.402Z,21.57
2023-06-28T18:22:42.262Z,21.54
2023-06-28T18:27:44.491Z,21.52
2023-06-28T18:32:47.971Z,21.49
2023-06-28T18:37:49.980Z,21.44
2023-06-28T18:42:51.952Z,21.42
2023-06-28T18:47:58.877Z,21.36
2023-06-28T18:53:00.880Z,21.26
2023-06-28T18:58:02.758Z,21.17
2023-06-28T19:03:04.605Z,21.11
2023-06-28T19:08:06.461Z,21.06
2023-06-28T19:13:08.345Z,20.98
2023-06-28T19:18:10.418Z,20.93
2023-06-28T19:23:12.309Z,20.85
2023-06-28T19:28:14.341Z,20.77
2023-06-28T19:33:16.954Z,20.64
2023-06-28T19:38:19.024Z,20.53
2023-06-28T19:43:20.907Z,20.44
2023-06-28T19:48:22.882Z,20.35
2023-06-28T19:53:24.981Z,20.28
2023-06-28T19:58:26.688Z,20.20
2023-06-28T20:03:28.650Z,20.12
2023-06-28T20:08:42.220Z,20.05
2023-06-28T20:13:43.977Z,19.97
2023-06-28T20:18:45.766Z,19.90
2023-06-28T20:23:50.002Z,19.84
2023-06-28T20:28:52.001Z,19.79
2023-06-28T20:33:54.792Z,19.77
2023-06-28T20:38:56.504Z,19.74
2023-06-28T20:43:58.351Z,19.69
2023-06-28T20:49:00.078Z,19.63
2023-06-28T20:54:02.386Z,19.56
2023-06-28T20:59:04.203Z,19.48
2023-06-28T21:04:06.244Z,19.42
2023-06-28T21:09:08.190Z,19.37
2023-06-28T21:14:10.003Z,19.34
2023-06-28T21:19:13.817Z,19.30
2023-06-28T21:24:16.204Z,19.27
2023-06-28T21:29:18.246Z,19.21
2023-06-28T21:34:20.050Z,19.19
2023-06-28T21:39:21.883Z,19.15
2023-06-28T21:44:24.026Z,19.12
2023-06-28T21:49:25.806Z,19.07
2023-06-28T21:54:27.557Z,19.04
2023-06-28T21:59:32.511Z,19.00
2023-06-28T22:04:34.278Z,18.96
2023-06-28T22:09:36.167Z,18.93
2023-06-28T22:14:43.606Z,18.89
2023-06-28T22:19:45.475Z,18.85
2023-06-28T22:24:47.301Z,18.80
2023-06-28T22:29:51.999Z,18.76
2023-06-28T22:34:53.818Z,18.73
2023-06-28T22:39:58.591Z,18.70
2023-06-28T22:45:01.009Z,18.65
2023-06-28T22:50:02.975Z,18.61
2023-06-28T22:55:05.409Z,18.57
2023-06-28T23:00:09.296Z,18.53
2023-06-28T23:05:11.087Z,18.50
2023-06-28T23:10:17.872Z,18.45
2023-06-28T23:15:19.835Z,18.41
2023-06-28T23:20:21.673Z,18.37
2023-06-28T23:25:23.456Z,18.32
2023-06-28T23:30:25.206Z,18.29
2023-06-28T23:35:28.288Z,18.24
2023-06-28T23:40:30.220Z,18.22
2023-06-28T23:45:32.049Z,18.20
2023-06-28T23:50:33.846Z,18.17
2023-06-28T23:55:35.900Z,18.13
